Flight Track Log - Related Links

Times and Time Zones

All times are in EDT time to prevent confusion due to time zone crossing. See the N5372V flight status page for this flight to view local times or setup timezone preferences in your user account.

Time Position Orientation Groundspeed Altitude Reporting Facility
EDT Latitude Longitude Course Direction KTS MPH feet Rate Location/Type
Fri 09:35:42 PM 38.0939 -84.5842 North 76 87 3,000  Level Indianapolis Center
Fri 09:36:44 PM 38.1147 -84.5825 North 74 85 3,600 624 Climbing Indianapolis Center
Fri 09:37:47 PM 38.1378 -84.5775 10° North 76 87 4,300 677 Climbing Indianapolis Center
Fri 09:38:48 PM 38.1586 -84.5750 North 76 87 5,000 639 Climbing Indianapolis Center
Fri 09:39:00 PM 38.2353 -84.5688 North  Level FlightAware Approximate
Fri 09:39:49 PM 38.1783 -84.5711 North 76 87 5,600  Level Indianapolis Center
Fri 09:40:00 PM 38.2690 -84.5635 North  Level FlightAware Approximate
Fri 09:40:51 PM 38.1981 -84.5678 North 76 87 6,100  Level Indianapolis Center
Fri 09:41:00 PM 38.3026 -84.5579 North  Level FlightAware Approximate
Fri 09:41:51 PM 38.2189 -84.5650 North 76 87 6,700  Level Indianapolis Center
Fri 09:42:51 PM 38.2392 -84.5622 North 76 87 7,100 197 Climbing Indianapolis Center
Fri 09:43:53 PM 38.2642 -84.5600 North 78 90 7,100  Level Indianapolis Center
Fri 09:44:55 PM 38.2969 -84.5550 North 96 110 7,100  Level Indianapolis Center
Fri 09:45:56 PM 38.3356 -84.5467 10° North 110 127 7,100  Level Indianapolis Center
Fri 09:46:57 PM 38.3678 -84.5411 North 112 129 7,100  Level Indianapolis Center
Fri 09:47:59 PM 38.3994 -84.5364 North 112 129 7,100  Level Indianapolis Center
Fri 09:48:59 PM 38.4308 -84.5314 North 112 129 7,100  Level Indianapolis Center
Fri 09:50:03 PM 38.4622 -84.5258 North 112 129 7,100  Level Indianapolis Center
Fri 09:51:04 PM 38.4939 -84.5203 North 113 130 7,100  Level Indianapolis Center
Fri 09:52:05 PM 38.5258 -84.5158 North 114 131 7,100  Level Indianapolis Center
Fri 09:53:06 PM 38.5572 -84.5097 North 114 131 7,100  Level Indianapolis Center
Fri 09:54:07 PM 38.5892 -84.5047 North 114 131 7,100  Level Indianapolis Center
Fri 09:55:07 PM 38.6206 -84.5008 North 114 131 7,100  Level Indianapolis Center
Fri 09:56:08 PM 38.6547 -84.4953 North 114 131 7,100  Level Indianapolis Center
Fri 09:57:09 PM 38.6869 -84.4892 North 114 131 7,100  Level Indianapolis Center
Fri 09:58:10 PM 38.7203 -84.4856 North 119 137 7,100  Level Indianapolis Center
Fri 09:59:13 PM 38.7519 -84.4778 11° North 119 137 7,100  Level Indianapolis Center
Fri 10:00:13 PM 38.7850 -84.4733 North 119 137 7,100  Level Indianapolis Center
Fri 10:01:14 PM 38.8192 -84.4744 359° North 119 137 7,100  Level Indianapolis Center
Fri 10:02:18 PM 38.8567 -84.4794 354° North 118 136 7,100  Level Indianapolis Center
Fri 10:03:18 PM 38.8900 -84.4822 356° North 118 136 7,100  Level Indianapolis Center
Fri 10:04:19 PM 38.9225 -84.4864 354° North 118 136 7,100  Level Indianapolis Center
Fri 10:05:19 PM 38.9558 -84.4797 North 118 136 7,100  Level Indianapolis Center
Fri 10:06:23 PM 38.9886 -84.4753 North 119 137 7,100  Level Indianapolis Center
Fri 10:06:59 PM 39.0142 -84.4714 North 122 140 7,100  Level Indianapolis Center
Fri 10:07:23 PM 39.0233 -84.4689 12° North 121 139 7,100  Level Indianapolis Center
Fri 10:08:25 PM 39.0564 -84.4633 North 121 139 7,100  Level Indianapolis Center
Fri 10:09:25 PM 39.0903 -84.4578 North 121 139 7,100  Level Indianapolis Center
Fri 10:10:27 PM 39.1233 -84.4514 North 121 139 7,100  Level Indianapolis Center
Fri 10:11:26 PM 39.1564 -84.4458 North 121 139 7,100  Level Indianapolis Center
Fri 10:12:30 PM 39.1969 -84.4389 North 121 139 7,100  Level Indianapolis Center
Fri 10:13:28 PM 39.2311 -84.4322 North 121 139 7,100  Level Indianapolis Center
Fri 10:14:35 PM 39.2672 -84.4278 North 123 142 7,100  Level Indianapolis Center
Fri 10:15:41 PM 39.3058 -84.4211 North 121 139 7,100  Level Indianapolis Center
Fri 10:16:33 PM 39.3322 -84.4150 10° North 122 140 7,100  Level Indianapolis Center
Fri 10:17:35 PM 39.3675 -84.4092 North 122 140 7,100  Level Indianapolis Center
Fri 10:18:37 PM 39.4019 -84.4031 North 122 140 7,100  Level Indianapolis Center
Fri 10:19:38 PM 39.4350 -84.3972 North 122 140 7,100  Level Indianapolis Center
Fri 10:20:45 PM 39.4778 -84.3897 North 124 143 7,100  Level Indianapolis Center
Fri 10:21:40 PM 39.5039 -84.3844 North 123 142 7,100  Level Indianapolis Center
Fri 10:22:40 PM 39.5386 -84.3794 North 125 144 7,100  Level Indianapolis Center
Fri 10:23:40 PM 39.5806 -84.3728 North 128 147 7,100  Level Indianapolis Center
Fri 10:24:43 PM 39.6172 -84.3658 North 128 147 7,100  Level Indianapolis Center
Fri 10:25:37 PM 39.6472 -84.3606 North 128 147 7,100  Level Indianapolis Center
Fri 10:26:36 PM 39.6839 -84.3533 North 129 148 7,100  Level Indianapolis Center
Fri 10:27:44 PM 39.7231 -84.3469 North 127 146 7,100  Level Indianapolis Center
Fri 10:28:38 PM 39.7567 -84.3419 North 130 150 7,100  Level Indianapolis Center
Fri 10:29:40 PM 39.7911 -84.3344 North 129 148 7,100  Level Indianapolis Center
Fri 10:30:49 PM 39.8300 -84.3272 North 127 146 7,100  Level Indianapolis Center
Fri 10:31:41 PM 39.8639 -84.3231 North 132 152 7,100  Level Indianapolis Center
Fri 10:32:42 PM 39.8983 -84.3156 North 128 147 7,100  Level Indianapolis Center
Fri 10:33:40 PM 39.9347 -84.3086 North 132 152 7,100  Level Indianapolis Center
Fri 10:33:52 PM 39.9389 -84.3081 North 130 150 7,100  Level Indianapolis Center
Fri 10:34:47 PM 39.9775 -84.3025 North 130 150 7,100  Level Indianapolis Center
Fri 10:35:54 PM 40.0100 -84.2956 North 130 150 7,100  Level Indianapolis Center
Fri 10:36:54 PM 40.0472 -84.2894 North 130 150 7,100  Level Indianapolis Center
Fri 10:37:55 PM 40.0892 -84.2817 North 131 151 7,100  Level Indianapolis Center
Fri 10:38:54 PM 40.1264 -84.2736 North 131 151 7,100  Level Indianapolis Center
Fri 10:39:55 PM 40.1636 -84.2683 North 131 151 7,100  Level Indianapolis Center
Fri 10:40:57 PM 40.1994 -84.2617 North 131 151 7,100  Level Indianapolis Center
Fri 10:42:04 PM 40.2394 -84.2539 North 132 152 7,100  Level Indianapolis Center
Fri 10:43:01 PM 40.2725 -84.2486 North 131 151 7,100  Level Indianapolis Center
Fri 10:44:01 PM 40.3092 -84.2419 North 131 151 7,100  Level Indianapolis Center
Fri 10:45:01 PM 40.3461 -84.2347 North 131 151 7,100  Level Indianapolis Center
Fri 10:46:04 PM 40.3828 -84.2283 North 131 151 7,100  Level Indianapolis Center
Fri 10:47:03 PM 40.4183 -84.2217 North 131 151 7,100  Level Indianapolis Center
Fri 10:49:00 PM 40.4883 -84.2097 North 129 148 7,100  Level Cleveland Center
Fri 10:50:01 PM 40.5233 -84.2036 North 129 148 7,100  Level Cleveland Center
Fri 10:51:02 PM 40.5589 -84.1967 North 129 148 7,100  Level Cleveland Center
Fri 10:52:09 PM 40.6006 -84.1894 North 130 150 7,100  Level Indianapolis Center
Fri 10:53:10 PM 40.6367 -84.1831 North 130 150 7,100  Level Indianapolis Center
Fri 10:54:11 PM 40.6725 -84.1756 North 130 150 7,100  Level Indianapolis Center
Fri 10:55:11 PM 40.7083 -84.1689 North 130 150 7,100 -50 Level Indianapolis Center
Fri 10:56:11 PM 40.7450 -84.1631 North 130 150 7,000 -50 Descending Indianapolis Center
Fri 10:57:11 PM 40.7817 -84.1556 North 130 150 7,000  Level Indianapolis Center
Fri 10:58:13 PM 40.8175 -84.1500 North 130 150 7,000  Level Indianapolis Center
Fri 10:59:13 PM 40.8519 -84.1428 North 130 150 7,000  Level Indianapolis Center
Fri 11:00:15 PM 40.8869 -84.1364 North 130 150 7,000  Level Indianapolis Center
Fri 11:01:11 PM 40.9164 -84.1311 North 126 145 7,000  Level Cleveland Center
Fri 11:02:12 PM 40.9572 -84.1247 North 125 144 7,000  Level Cleveland Center
Fri 11:03:13 PM 40.9919 -84.1164 10° North 125 144 7,000  Level Cleveland Center
Fri 11:04:13 PM 41.0269 -84.1111 North 125 144 7,000  Level Cleveland Center
Fri 11:05:14 PM 41.0606 -84.1050 North 125 144 7,000  Level Cleveland Center
Fri 11:06:15 PM 41.0953 -84.0992 North 125 144 7,000  Level Cleveland Center
Fri 11:07:16 PM 41.1283 -84.0914 10° North 125 144 7,000  Level Cleveland Center
Fri 11:08:17 PM 41.1631 -84.0875 North 125 144 7,000  Level Cleveland Center
Fri 11:09:17 PM 41.1961 -84.0792 11° North 124 143 7,000  Level Cleveland Center
Fri 11:10:18 PM 41.2308 -84.0742 North 124 143 7,000  Level Cleveland Center
Fri 11:11:19 PM 41.2650 -84.0667 North 124 143 7,000  Level Cleveland Center
Fri 11:12:20 PM 41.2992 -84.0611 North 124 143 7,000  Level Cleveland Center
Fri 11:13:21 PM 41.3331 -84.0536 North 124 143 7,000  Level Cleveland Center
Fri 11:14:22 PM 41.3678 -84.0489 North 124 143 7,000  Level Cleveland Center
Fri 11:14:54 PM 41.3917 -84.0469 North 126 145 7,000  Level Cleveland Center
Fri 11:15:22 PM 41.4011 -84.0414 24° Northeast 123 142 7,000  Level Cleveland Center
Fri 11:16:23 PM 41.4356 -84.0344 North 123 142 7,000  Level Cleveland Center
Fri 11:17:24 PM 41.4683 -84.0289 North 123 142 7,000  Level Cleveland Center
Fri 11:18:25 PM 41.5094 -84.0206 North 123 142 7,000  Level Cleveland Center
Fri 11:19:26 PM 41.5431 -84.0158 North 123 142 7,000  Level Cleveland Center
Fri 11:20:26 PM 41.5758 -84.0092 North 122 140 7,000  Level Cleveland Center
Fri 11:21:27 PM 41.6103 -84.0019 North 123 142 7,000  Level Cleveland Center
Fri 11:21:41 PM 41.6200 -84.0003 North 122 140 7,000 98 Level Cleveland Center
Fri 11:22:28 PM 41.6450 -83.9956 North 124 143 7,100  Climbing Cleveland Center
Fri 11:22:41 PM 41.6542 -83.9944 North 122 140 7,000  Descending Cleveland Center
Fri 11:23:29 PM 41.6767 -83.9906 North 121 139 7,100  Climbing Cleveland Center
Fri 11:23:42 PM 41.6861 -83.9878 12° North 122 140 7,000  Descending Cleveland Center
Fri 11:24:30 PM 41.7108 -83.9836 North 121 139 7,100 56 Climbing Cleveland Center
Fri 11:25:30 PM 41.7444 -83.9778 North 122 140 7,100 -47 Level Cleveland Center
Fri 11:26:38 PM 41.7842 -83.9689 North 122 140 7,000 -47 Descending Cleveland Center
Fri 11:27:38 PM 41.8183 -83.9628 North 124 143 7,000  Level Cleveland Center
Fri 11:28:39 PM 41.8522 -83.9567 North 124 143 7,000 52 Level Cleveland Center
Fri 11:29:33 PM 41.8808 -83.9517 North 124 143 7,100  Climbing Cleveland Center
Fri 11:30:28 PM 41.9164 -83.9439 North 125 144 7,000 -49 Descending Cleveland Center
Fri 11:31:35 PM 41.9525 -83.9381 North 123 142 7,000  Level Cleveland Center
Fri 11:32:36 PM 41.9864 -83.9319 North 123 142 7,000  Level Cleveland Center
Fri 11:33:30 PM 42.0186 -83.9256 North 123 142 7,000  Level Cleveland Center
Fri 11:34:31 PM 42.0525 -83.9192 North 123 142 7,000  Level Cleveland Center
Fri 11:35:31 PM 42.0867 -83.9131 North 123 142 7,000  Level Cleveland Center
Fri 11:36:32 PM 42.1208 -83.9069 North 123 142 7,000  Level Cleveland Center
Fri 11:37:33 PM 42.1569 -83.8983 10° North 125 144 7,000  Level Cleveland Center
Fri 11:39:34 PM 42.2272 -83.8861 North 126 145 7,000 32 Level Cleveland Center
Fri 11:40:41 PM 42.2647 -83.8786 North 124 143 7,100 47 Climbing Cleveland Center
Fri 11:41:41 PM 42.3000 -83.8719 North 125 144 7,100 -59 Level Cleveland Center
Fri 11:42:23 PM 42.3253 -83.8669 North 127 146 7,000  Descending Cleveland Center
Fri 11:42:42 PM 42.3353 -83.8650 North 125 144 7,100  Climbing Cleveland Center
Fri 11:43:24 PM 42.3614 -83.8611 North 128 147 7,000  Descending Cleveland Center
Fri 11:43:42 PM 42.3706 -83.8586 11° North 125 144 7,100  Climbing Cleveland Center
Fri 11:44:25 PM 42.3975 -83.8553 North 129 148 7,000  Descending Cleveland Center
Fri 11:44:43 PM 42.4058 -83.8514 19° North 125 144 7,100  Climbing Cleveland Center
Fri 11:45:25 PM 42.4339 -83.8464 North 131 151 7,000  Descending Cleveland Center
Fri 11:45:43 PM 42.4422 -83.8450 North 127 146 7,100 76 Climbing Cleveland Center
Fri 11:46:44 PM 42.4783 -83.8383 North 128 147 7,100  Level Cleveland Center
Fri 11:47:44 PM 42.5139 -83.8308 North 128 147 7,100  Level Cleveland Center
Fri 11:48:45 PM 42.5497 -83.8247 North 128 147 7,100  Level Cleveland Center
Fri 11:49:45 PM 42.5858 -83.8175 North 128 147 7,100  Level Cleveland Center
Fri 11:50:45 PM 42.6206 -83.8108 North 128 147 7,100 -198 Level Cleveland Center
Fri 11:51:46 PM 42.6578 -83.8033 North 129 148 6,700 -446 Descending Cleveland Center
Fri 11:52:46 PM 42.7025 -83.7947 North 141 162 6,200 -500 Descending Cleveland Center

Login

Don't have an account? Register now (free) for customized features, flight alerts, and more!